createdAt,value
2023-05-22T00:01:30.459Z,5.40
2023-05-22T00:08:15.487Z,5.20
2023-05-22T00:10:42.496Z,5.40
2023-05-22T00:13:09.579Z,5.50
2023-05-22T00:15:37.013Z,6.10
2023-05-22T00:18:04.349Z,5.90
2023-05-22T00:20:31.698Z,5.70
2023-05-22T00:23:01.568Z,6.30
2023-05-22T00:25:28.569Z,5.40
2023-05-22T00:27:55.595Z,6.10
2023-05-22T00:30:22.690Z,5.60
2023-05-22T00:32:49.750Z,6.20
2023-05-22T00:35:16.752Z,5.40
2023-05-22T00:37:46.164Z,4.80
2023-05-22T00:40:13.905Z,6.20
2023-05-22T00:42:40.888Z,5.70
2023-05-22T00:45:08.324Z,5.90
2023-05-22T00:47:35.350Z,5.50
2023-05-22T00:50:02.524Z,5.50
2023-05-22T00:52:29.630Z,5.80
2023-05-22T00:54:56.680Z,5.70
2023-05-22T00:57:24.673Z,6.40
2023-05-22T00:59:51.693Z,5.60
2023-05-22T01:02:19.907Z,5.20
2023-05-22T01:04:48.658Z,5.20
2023-05-22T01:07:16.720Z,5.10
2023-05-22T01:09:44.229Z,4.30
2023-05-22T01:12:28.277Z,4.30
2023-05-22T01:15:37.036Z,4.90
2023-05-22T01:18:21.016Z,5.10
2023-05-22T01:21:10.373Z,5.20
2023-05-22T01:23:57.734Z,5.60
2023-05-22T01:26:43.381Z,5.90
2023-05-22T01:29:26.191Z,5.30
2023-05-22T01:31:53.214Z,6.50
2023-05-22T01:34:23.628Z,5.60
2023-05-22T01:36:50.922Z,5.40
2023-05-22T01:39:19.979Z,5.10
2023-05-22T01:41:46.976Z,5.40
2023-05-22T01:44:14.098Z,5.90
2023-05-22T01:46:41.280Z,5.90
2023-05-22T01:49:09.210Z,6.30
2023-05-22T01:51:59.262Z,7.10
2023-05-22T01:54:31.786Z,5.70
2023-05-22T01:57:22.234Z,6.60
2023-05-22T01:59:50.946Z,5.30
2023-05-22T02:02:18.765Z,5.30
2023-05-22T02:04:47.265Z,5.40
2023-05-22T02:07:14.694Z,5.30
2023-05-22T02:09:41.845Z,5.40
2023-05-22T02:12:11.802Z,5.60
2023-05-22T02:14:38.801Z,5.90
2023-05-22T02:17:06.158Z,6.20
2023-05-22T02:19:37.859Z,5.90
2023-05-22T02:22:05.865Z,7.40
2023-05-22T02:24:37.074Z,6.80
2023-05-22T02:27:04.312Z,6.50
2023-05-22T02:29:31.261Z,6.00
2023-05-22T02:31:58.690Z,6.10
2023-05-22T02:34:27.000Z,6.40
2023-05-22T02:36:54.056Z,6.80
2023-05-22T02:39:21.405Z,6.60
2023-05-22T02:41:48.380Z,6.50
2023-05-22T02:44:15.520Z,6.10
2023-05-22T02:46:43.426Z,5.90
2023-05-22T02:49:10.486Z,6.30
2023-05-22T02:51:37.517Z,6.10
2023-05-22T02:54:04.698Z,6.10
2023-05-22T02:56:31.726Z,7.30
2023-05-22T02:58:58.674Z,7.70
2023-05-22T03:01:26.686Z,7.30
2023-05-22T03:03:55.156Z,6.60
2023-05-22T03:06:23.349Z,5.40
2023-05-22T03:08:51.140Z,6.00
2023-05-22T03:11:18.058Z,6.50
2023-05-22T03:13:45.070Z,6.10
2023-05-22T03:16:12.156Z,6.90
2023-05-22T03:18:41.938Z,6.30
2023-05-22T03:21:08.914Z,6.40
2023-05-22T03:23:36.058Z,5.80
2023-05-22T03:26:03.134Z,5.30
2023-05-22T03:28:31.724Z,6.40
2023-05-22T03:30:58.775Z,6.70
2023-05-22T03:33:28.017Z,6.60
2023-05-22T03:35:56.546Z,5.50
2023-05-22T03:38:23.599Z,6.60
2023-05-22T03:40:50.967Z,6.30
2023-05-22T03:43:18.008Z,5.90
2023-05-22T03:45:45.117Z,5.70
2023-05-22T03:48:12.816Z,6.40
2023-05-22T03:50:40.256Z,5.50
2023-05-22T03:53:07.574Z,6.30
2023-05-22T03:55:34.509Z,5.60
2023-05-22T03:58:01.517Z,6.50
2023-05-22T04:00:28.597Z,6.10
2023-05-22T04:02:58.874Z,5.60
2023-05-22T04:05:26.093Z,4.10
2023-05-22T04:07:53.129Z,5.20
2023-05-22T04:10:22.743Z,5.20
2023-05-22T04:12:50.566Z,4.90
2023-05-22T04:15:17.809Z,5.20
2023-05-22T04:17:44.922Z,4.40
2023-05-22T04:20:12.300Z,4.60
2023-05-22T04:22:39.694Z,5.10
2023-05-22T04:25:07.151Z,5.20
2023-05-22T04:27:34.446Z,4.90
2023-05-22T04:30:02.554Z,4.50
2023-05-22T04:32:29.892Z,4.70
2023-05-22T04:34:58.540Z,5.10
2023-05-22T04:37:26.658Z,5.00
2023-05-22T04:39:58.315Z,5.20
2023-05-22T04:42:25.488Z,5.20
2023-05-22T04:44:58.217Z,5.80
2023-05-22T04:47:25.225Z,5.40
2023-05-22T04:49:52.302Z,5.20
2023-05-22T04:52:19.275Z,4.80
2023-05-22T04:54:46.917Z,5.90
2023-05-22T04:57:13.967Z,5.30
2023-05-22T04:59:41.646Z,5.00
2023-05-22T05:02:09.406Z,5.30
2023-05-22T05:04:36.545Z,4.90
2023-05-22T05:07:04.588Z,5.00
2023-05-22T05:09:32.263Z,5.30
2023-05-22T05:11:59.410Z,5.90
2023-05-22T05:14:26.416Z,5.30
2023-05-22T05:16:53.732Z,5.00
2023-05-22T05:19:21.650Z,4.80
2023-05-22T05:21:49.837Z,5.20
2023-05-22T05:24:19.786Z,5.50
2023-05-22T05:26:47.477Z,5.00
2023-05-22T05:29:17.202Z,5.30
2023-05-22T05:31:58.580Z,4.60
2023-05-22T05:34:51.743Z,4.90
2023-05-22T05:37:41.886Z,3.90
2023-05-22T05:40:09.929Z,4.20
2023-05-22T05:42:40.938Z,3.90
2023-05-22T05:45:10.248Z,3.90
2023-05-22T05:47:37.459Z,3.50
2023-05-22T05:50:04.682Z,3.50
2023-05-22T05:52:33.775Z,3.20
2023-05-22T05:55:04.804Z,3.50
2023-05-22T05:57:31.955Z,3.50
2023-05-22T05:59:59.092Z,3.60
2023-05-22T06:02:41.888Z,3.50
2023-05-22T06:05:19.588Z,4.10
2023-05-22T06:07:48.424Z,3.60
2023-05-22T06:10:15.727Z,3.80
2023-05-22T06:13:02.949Z,3.80
2023-05-22T06:15:31.045Z,3.30
2023-05-22T06:17:58.210Z,2.60
2023-05-22T06:20:25.378Z,2.50
2023-05-22T06:22:52.452Z,2.40
2023-05-22T06:25:19.513Z,2.70
2023-05-22T06:27:47.581Z,2.50
2023-05-22T06:30:25.431Z,2.20
2023-05-22T06:33:00.063Z,2.70
2023-05-22T06:35:27.504Z,2.40
2023-05-22T06:37:54.833Z,2.30
2023-05-22T06:40:22.200Z,2.40
2023-05-22T06:42:52.697Z,2.30
2023-05-22T06:45:33.671Z,2.40
2023-05-22T06:48:19.270Z,2.40
2023-05-22T06:51:04.835Z,2.50
2023-05-22T06:53:32.149Z,2.20
2023-05-22T06:55:59.312Z,2.20
2023-05-22T06:58:39.481Z,2.20
2023-05-22T07:01:07.907Z,2.50
2023-05-22T07:03:40.004Z,2.30
2023-05-22T07:06:32.487Z,2.00
2023-05-22T07:09:00.828Z,2.20
2023-05-22T07:11:28.287Z,2.50
2023-05-22T07:13:55.333Z,2.80
2023-05-22T07:16:23.309Z,2.70
2023-05-22T07:18:50.737Z,2.60
2023-05-22T07:21:18.008Z,2.80
2023-05-22T07:23:45.046Z,2.60
2023-05-22T07:26:12.154Z,2.30
2023-05-22T07:28:45.921Z,2.60
2023-05-22T07:31:14.052Z,2.70
2023-05-22T07:33:41.143Z,2.40
2023-05-22T07:36:08.341Z,2.90
2023-05-22T07:38:36.055Z,2.50
2023-05-22T07:41:04.945Z,2.20
2023-05-22T07:43:33.482Z,2.50
2023-05-22T07:46:00.694Z,2.60
2023-05-22T07:48:31.467Z,2.30
2023-05-22T07:50:58.941Z,2.20
2023-05-22T07:53:26.319Z,2.20
2023-05-22T07:55:54.649Z,2.30
2023-05-22T07:58:24.326Z,2.10
2023-05-22T08:00:51.929Z,2.60
2023-05-22T08:03:19.989Z,2.10
2023-05-22T08:05:48.901Z,2.40
2023-05-22T08:08:16.064Z,2.10
2023-05-22T08:11:01.932Z,2.30
2023-05-22T08:13:30.060Z,2.00
2023-05-22T08:16:00.682Z,2.10
2023-05-22T08:18:29.623Z,1.60
2023-05-22T08:20:57.236Z,2.00
2023-05-22T08:23:24.613Z,2.40
2023-05-22T08:25:51.621Z,2.20
2023-05-22T08:28:18.838Z,2.30
2023-05-22T08:30:46.256Z,2.00
2023-05-22T08:33:13.328Z,2.10
2023-05-22T08:35:40.345Z,2.30
2023-05-22T08:38:07.507Z,2.10
2023-05-22T08:40:39.161Z,2.00
2023-05-22T08:43:06.694Z,2.30
2023-05-22T08:45:34.450Z,2.10
2023-05-22T08:48:06.183Z,2.20
2023-05-22T08:50:34.882Z,2.20
2023-05-22T08:53:02.948Z,2.00
2023-05-22T08:55:30.322Z,1.80
2023-05-22T08:57:57.583Z,1.80
2023-05-22T09:00:24.550Z,1.80
2023-05-22T09:02:52.569Z,2.20
2023-05-22T09:05:20.037Z,1.80
2023-05-22T09:07:49.020Z,2.00
2023-05-22T09:10:16.142Z,1.90
2023-05-22T09:13:05.838Z,2.30
2023-05-22T09:15:33.106Z,2.10
2023-05-22T09:18:00.919Z,2.00
2023-05-22T09:20:27.970Z,1.60
2023-05-22T09:22:54.983Z,1.80
2023-05-22T09:25:22.091Z,2.00
2023-05-22T09:27:49.304Z,2.00
2023-05-22T09:30:17.802Z,1.70
2023-05-22T09:32:51.090Z,1.90
2023-05-22T09:35:19.221Z,2.00
2023-05-22T09:37:46.369Z,1.90
2023-05-22T09:40:14.316Z,1.90
2023-05-22T09:42:44.502Z,2.20
2023-05-22T09:45:11.719Z,2.40
2023-05-22T09:47:38.868Z,1.70
2023-05-22T09:50:07.550Z,1.70
2023-05-22T09:52:35.143Z,1.80
2023-05-22T09:55:07.140Z,1.70
2023-05-22T09:57:48.579Z,1.90
2023-05-22T10:00:18.071Z,1.80
2023-05-22T10:03:04.213Z,2.10
2023-05-22T10:05:31.993Z,1.90
2023-05-22T10:08:12.178Z,1.80
2023-05-22T10:10:39.501Z,2.10
2023-05-22T10:13:06.660Z,2.60
2023-05-22T10:15:37.159Z,1.90
2023-05-22T10:18:04.462Z,1.60
2023-05-22T10:20:31.736Z,1.80
2023-05-22T10:22:58.854Z,1.90
2023-05-22T10:25:26.299Z,1.90
2023-05-22T10:27:53.765Z,1.80
2023-05-22T10:30:34.137Z,1.90
2023-05-22T10:33:26.255Z,2.00
2023-05-22T10:35:56.681Z,1.60
2023-05-22T10:38:35.983Z,1.60
2023-05-22T10:41:06.108Z,1.90
2023-05-22T10:43:33.104Z,1.70
2023-05-22T10:46:04.323Z,1.70
2023-05-22T10:48:42.580Z,1.80
2023-05-22T10:51:10.035Z,1.60
2023-05-22T10:53:37.116Z,1.80
2023-05-22T10:56:11.317Z,1.80
2023-05-22T10:58:39.029Z,1.90
2023-05-22T11:01:19.741Z,1.90
2023-05-22T11:03:58.966Z,1.90
2023-05-22T11:06:38.528Z,2.20
2023-05-22T11:09:27.296Z,2.20
2023-05-22T11:12:16.690Z,1.80
2023-05-22T11:14:50.899Z,2.00
2023-05-22T11:17:21.041Z,2.10
2023-05-22T11:20:21.207Z,1.80
2023-05-22T11:23:05.483Z,2.00
2023-05-22T11:25:36.661Z,1.80
2023-05-22T11:28:06.042Z,2.00
2023-05-22T11:30:33.149Z,2.00
2023-05-22T11:33:00.662Z,1.70
2023-05-22T11:35:28.133Z,1.80
2023-05-22T11:37:55.715Z,1.80
2023-05-22T11:40:26.778Z,2.00
2023-05-22T11:42:54.137Z,1.90
2023-05-22T11:45:21.794Z,2.00
2023-05-22T11:47:49.220Z,2.30
2023-05-22T11:50:22.462Z,1.80
2023-05-22T11:52:56.428Z,1.90
2023-05-22T11:55:23.448Z,2.30
2023-05-22T11:57:50.429Z,2.20
2023-05-22T12:00:18.472Z,2.30
2023-05-22T12:02:51.505Z,1.80
2023-05-22T12:05:21.328Z,1.90
2023-05-22T12:07:48.807Z,1.70
2023-05-22T12:10:16.632Z,2.10
2023-05-22T12:12:44.332Z,2.10
2023-05-22T12:15:12.172Z,2.10
2023-05-22T12:17:40.217Z,2.00
2023-05-22T12:20:08.205Z,2.00
2023-05-22T12:22:41.092Z,1.60
2023-05-22T12:25:17.806Z,1.80
2023-05-22T12:27:46.095Z,1.70
2023-05-22T12:30:14.288Z,2.00
2023-05-22T12:32:46.998Z,2.20
2023-05-22T12:35:18.304Z,1.80
2023-05-22T12:40:17.059Z,2.00
2023-05-22T12:42:45.066Z,1.90
2023-05-22T12:45:13.526Z,2.00
2023-05-22T12:47:41.084Z,1.80
2023-05-22T12:50:09.199Z,1.70
2023-05-22T12:52:36.808Z,1.80
2023-05-22T12:55:04.774Z,1.90
2023-05-22T12:57:32.307Z,1.90
2023-05-22T12:59:59.844Z,1.80
2023-05-22T13:02:27.671Z,2.20
2023-05-22T13:04:55.436Z,2.00
2023-05-22T13:07:23.105Z,2.00
2023-05-22T13:09:50.764Z,2.00
2023-05-22T13:12:19.454Z,1.80
2023-05-22T13:14:47.108Z,1.80
2023-05-22T13:17:14.711Z,1.80
2023-05-22T13:19:42.220Z,1.70
2023-05-22T13:22:09.718Z,1.60
2023-05-22T13:24:37.220Z,1.70
2023-05-22T13:27:04.765Z,1.80
2023-05-22T13:29:33.103Z,1.80
2023-05-22T13:32:01.369Z,1.90
2023-05-22T13:34:29.340Z,2.60
2023-05-22T13:36:57.094Z,1.70
2023-05-22T13:39:24.629Z,2.10
2023-05-22T13:41:53.068Z,2.00
2023-05-22T13:44:21.445Z,2.30
2023-05-22T13:46:49.256Z,2.00
2023-05-22T13:49:16.995Z,1.80
2023-05-22T13:51:44.539Z,2.00
2023-05-22T13:54:12.034Z,1.90
2023-05-22T13:56:39.546Z,2.10
2023-05-22T13:59:09.154Z,1.70
2023-05-22T14:01:37.119Z,1.70
2023-05-22T14:04:05.360Z,2.10
2023-05-22T14:06:33.254Z,1.90
2023-05-22T14:09:00.944Z,2.00
2023-05-22T14:11:28.521Z,1.90
2023-05-22T14:13:56.143Z,2.30
2023-05-22T14:16:23.736Z,2.00
2023-05-22T14:18:51.360Z,2.20
2023-05-22T14:21:19.589Z,2.00
2023-05-22T14:23:47.237Z,1.90
2023-05-22T14:26:15.108Z,1.80
2023-05-22T14:28:43.133Z,1.80
2023-05-22T14:31:10.907Z,1.70
2023-05-22T14:33:38.544Z,2.20
2023-05-22T14:36:06.475Z,2.10
2023-05-22T14:38:34.496Z,2.10
2023-05-22T14:41:02.195Z,2.00
2023-05-22T14:43:29.724Z,1.70
2023-05-22T14:45:58.197Z,1.70
2023-05-22T14:48:26.693Z,1.60
2023-05-22T14:50:54.704Z,2.00
2023-05-22T14:53:22.488Z,2.00
2023-05-22T14:55:50.049Z,2.30
2023-05-22T14:58:17.591Z,1.90
2023-05-22T15:00:47.162Z,2.00
2023-05-22T15:03:14.914Z,2.60
2023-05-22T15:05:42.686Z,2.10
2023-05-22T15:08:10.415Z,2.60
2023-05-22T15:10:37.965Z,1.80
2023-05-22T15:13:05.756Z,1.90
2023-05-22T15:15:33.379Z,2.40
2023-05-22T15:18:02.931Z,2.10
2023-05-22T15:20:31.343Z,2.20
2023-05-22T15:22:59.711Z,2.10
2023-05-22T15:25:27.623Z,2.00
2023-05-22T15:27:55.299Z,1.80
2023-05-22T15:30:23.745Z,2.20
2023-05-22T15:32:54.037Z,1.90
2023-05-22T15:35:21.800Z,2.10
2023-05-22T15:37:49.347Z,2.50
2023-05-22T15:40:22.433Z,2.50
2023-05-22T15:42:51.331Z,1.90
2023-05-22T15:45:18.879Z,2.00
2023-05-22T15:47:47.191Z,2.00
2023-05-22T15:50:15.017Z,1.90
2023-05-22T15:52:42.559Z,2.20
2023-05-22T15:55:10.161Z,1.80
2023-05-22T15:57:38.315Z,2.10
2023-05-22T16:00:06.595Z,2.00
2023-05-22T16:02:34.325Z,2.10
2023-05-22T16:05:01.910Z,2.00
2023-05-22T16:07:29.498Z,1.90
2023-05-22T16:09:57.015Z,2.00
2023-05-22T16:12:24.574Z,1.70
2023-05-22T16:14:59.470Z,1.80
2023-05-22T16:17:29.500Z,2.10
2023-05-22T16:19:57.089Z,2.00
2023-05-22T16:22:30.383Z,1.70
2023-05-22T16:25:04.436Z,2.10
2023-05-22T16:27:31.954Z,2.20
2023-05-22T16:30:02.656Z,2.20
2023-05-22T16:32:30.287Z,2.70
2023-05-22T16:34:57.809Z,2.80
2023-05-22T16:37:25.310Z,2.60
2023-05-22T16:39:52.983Z,2.90
2023-05-22T16:42:20.638Z,3.20
2023-05-22T16:44:48.137Z,3.00
2023-05-22T16:47:15.650Z,2.70
2023-05-22T16:49:43.153Z,2.50
2023-05-22T16:52:10.791Z,2.80
2023-05-22T16:54:38.503Z,2.90
2023-05-22T16:57:07.604Z,3.00
2023-05-22T16:59:35.249Z,2.80
2023-05-22T17:02:02.901Z,3.50
2023-05-22T17:04:30.446Z,2.90
2023-05-22T17:06:57.975Z,3.30
2023-05-22T17:09:25.581Z,3.50
2023-05-22T17:11:53.532Z,3.20
2023-05-22T17:14:25.575Z,3.10
2023-05-22T17:16:54.461Z,3.30
2023-05-22T17:19:22.249Z,3.30
2023-05-22T17:21:49.828Z,3.50
2023-05-22T17:24:17.339Z,2.90
2023-05-22T17:26:44.899Z,3.20
2023-05-22T17:29:12.495Z,3.80
2023-05-22T17:31:40.166Z,3.30
2023-05-22T17:34:07.712Z,3.70
2023-05-22T17:36:35.181Z,3.90
2023-05-22T17:39:02.741Z,3.60
2023-05-22T17:41:31.086Z,3.10
2023-05-22T17:44:01.004Z,3.40
2023-05-22T17:46:28.626Z,3.50
2023-05-22T17:48:56.132Z,3.50
2023-05-22T17:51:23.679Z,4.20
2023-05-22T17:53:56.082Z,3.80
2023-05-22T17:56:23.746Z,3.90
2023-05-22T17:58:51.462Z,4.00
2023-05-22T18:01:19.398Z,3.80
2023-05-22T18:03:47.234Z,3.50
2023-05-22T18:06:14.931Z,3.70
2023-05-22T18:08:42.512Z,3.90
2023-05-22T18:11:10.025Z,4.30
2023-05-22T18:13:37.660Z,4.40
2023-05-22T18:16:05.449Z,3.80
2023-05-22T18:18:33.096Z,3.70
2023-05-22T18:21:00.638Z,4.30
2023-05-22T18:23:28.262Z,4.30
2023-05-22T18:25:57.343Z,3.60
2023-05-22T18:28:27.663Z,3.60
2023-05-22T18:30:55.230Z,4.10
2023-05-22T18:33:24.769Z,4.20
2023-05-22T18:35:52.755Z,4.00
2023-05-22T18:38:22.268Z,4.40
2023-05-22T18:40:49.913Z,4.40
2023-05-22T18:43:17.423Z,5.50
2023-05-22T18:45:45.182Z,5.50
2023-05-22T18:48:12.723Z,5.80
2023-05-22T18:50:40.654Z,5.40
2023-05-22T18:53:08.606Z,5.80
2023-05-22T18:55:36.067Z,5.60
2023-05-22T18:58:03.630Z,5.30
2023-05-22T19:00:31.180Z,5.20
2023-05-22T19:02:59.386Z,4.60
2023-05-22T19:05:26.965Z,4.70
2023-05-22T19:07:54.563Z,4.50
2023-05-22T19:10:22.207Z,5.20
2023-05-22T19:12:49.764Z,5.00
2023-05-22T19:23:09.940Z,4.90
2023-05-22T19:25:37.509Z,5.20
2023-05-22T19:28:05.431Z,5.20
2023-05-22T19:30:33.113Z,4.70
2023-05-22T19:36:29.353Z,5.40
2023-05-22T19:38:56.949Z,5.90
2023-05-22T19:41:24.473Z,5.90
2023-05-22T19:43:52.070Z,5.70
2023-05-22T19:46:19.537Z,5.40
2023-05-22T19:48:47.066Z,6.00
2023-05-22T19:51:14.619Z,6.30
2023-05-22T19:53:42.716Z,6.30
2023-05-22T19:56:10.190Z,5.90
2023-05-22T19:58:39.803Z,6.40
2023-05-22T20:01:07.331Z,5.90
2023-05-22T20:03:35.102Z,6.50
2023-05-22T20:06:03.126Z,6.90
2023-05-22T20:08:30.644Z,6.40
2023-05-22T20:10:58.130Z,7.30
2023-05-22T20:13:25.777Z,7.50
2023-05-22T20:15:53.529Z,7.70
2023-05-22T20:18:23.049Z,7.80
2023-05-22T20:20:50.617Z,7.80
2023-05-22T20:23:18.179Z,6.80
2023-05-22T20:25:45.670Z,7.70
2023-05-22T20:28:13.178Z,7.40
2023-05-22T20:30:40.757Z,7.10
2023-05-22T20:33:08.390Z,7.50
2023-05-22T20:35:37.331Z,7.40
2023-05-22T20:38:08.774Z,7.40
2023-05-22T20:40:36.987Z,6.50
2023-05-22T20:43:05.277Z,7.30
2023-05-22T20:45:32.822Z,7.10
2023-05-22T20:48:00.909Z,7.40
2023-05-22T20:50:28.454Z,7.40
2023-05-22T20:52:55.995Z,7.40
2023-05-22T20:55:25.608Z,7.30
2023-05-22T20:57:53.199Z,6.90
2023-05-22T21:00:20.716Z,7.70
2023-05-22T21:02:48.369Z,7.20
2023-05-22T21:05:16.164Z,7.40
2023-05-22T21:07:43.910Z,7.00
2023-05-22T21:10:11.885Z,7.40
2023-05-22T21:12:39.524Z,6.90
2023-05-22T21:15:07.745Z,7.80
2023-05-22T21:17:36.070Z,7.50
2023-05-22T21:20:05.892Z,7.90
2023-05-22T21:22:33.422Z,7.40
2023-05-22T21:25:01.009Z,7.60
2023-05-22T21:27:28.641Z,7.30
2023-05-22T21:29:56.165Z,7.20
2023-05-22T21:32:23.830Z,8.10
2023-05-22T21:34:51.352Z,7.30
2023-05-22T21:37:18.856Z,7.10
2023-05-22T21:39:46.536Z,7.30
2023-05-22T21:42:16.178Z,7.90
2023-05-22T21:44:43.704Z,7.30
2023-05-22T21:47:11.548Z,7.00
2023-05-22T21:49:39.905Z,7.10
2023-05-22T21:52:07.527Z,7.40
2023-05-22T21:54:35.050Z,7.20
2023-05-22T21:57:02.684Z,7.60
2023-05-22T21:59:30.233Z,7.00
2023-05-22T22:01:57.967Z,7.70
2023-05-22T22:04:25.563Z,7.50
2023-05-22T22:06:53.155Z,7.30
2023-05-22T22:09:20.641Z,7.90
2023-05-22T22:11:48.871Z,7.40
2023-05-22T22:14:16.410Z,6.70
2023-05-22T22:16:44.915Z,8.00
2023-05-22T22:19:12.983Z,7.40
2023-05-22T22:21:40.856Z,7.00
2023-05-22T22:24:08.384Z,8.40
2023-05-22T22:26:35.954Z,7.80
2023-05-22T22:29:03.535Z,7.70
2023-05-22T22:31:31.077Z,7.70
2023-05-22T22:33:58.577Z,7.00
2023-05-22T22:36:26.464Z,6.90
2023-05-22T22:38:53.919Z,7.20
2023-05-22T22:41:21.363Z,7.80
2023-05-22T22:43:48.985Z,7.20
2023-05-22T22:46:16.637Z,7.20
2023-05-22T22:48:44.641Z,7.50
2023-05-22T22:51:12.224Z,6.50
2023-05-22T22:53:39.766Z,7.10
2023-05-22T22:56:07.409Z,7.10
2023-05-22T22:58:34.944Z,6.80
2023-05-22T23:01:02.506Z,7.70
2023-05-22T23:03:30.131Z,7.50
2023-05-22T23:05:58.048Z,6.70
2023-05-22T23:08:26.090Z,7.70
2023-05-22T23:10:53.775Z,7.40
2023-05-22T23:13:21.307Z,7.30
2023-05-22T23:15:48.935Z,7.20
2023-05-22T23:18:16.584Z,6.70
2023-05-22T23:20:44.200Z,7.50
2023-05-22T23:23:11.719Z,6.50
2023-05-22T23:25:39.626Z,6.50
2023-05-22T23:28:07.443Z,7.20
2023-05-22T23:30:34.974Z,7.10
2023-05-22T23:33:02.880Z,7.10
2023-05-22T23:35:31.161Z,7.30
2023-05-22T23:37:58.674Z,6.80
2023-05-22T23:40:26.235Z,7.80
2023-05-22T23:42:53.725Z,6.60
2023-05-22T23:45:21.380Z,7.00
2023-05-22T23:47:48.986Z,7.10
2023-05-22T23:50:16.524Z,7.50
2023-05-22T23:52:44.056Z,7.50
2023-05-22T23:55:11.503Z,6.60
2023-05-22T23:57:38.970Z,6.80
